sensor_id;sensor_type;location;lat;lon;timestamp;P1;durP1;ratioP1;P2;durP2;ratioP2
23358;SDS011;11851;50.796;4.372;2022-10-13T00:01:17;27.70;;;8.48;;
23358;SDS011;11851;50.796;4.372;2022-10-13T00:03:44;24.73;;;8.27;;
23358;SDS011;11851;50.796;4.372;2022-10-13T00:06:11;17.60;;;8.32;;
23358;SDS011;11851;50.796;4.372;2022-10-13T00:08:38;21.88;;;7.90;;
23358;SDS011;11851;50.796;4.372;2022-10-13T00:11:08;16.15;;;7.85;;
23358;SDS011;11851;50.796;4.372;2022-10-13T00:13:41;18.73;;;9.48;;
23358;SDS011;11851;50.796;4.372;2022-10-13T00:16:07;16.95;;;8.05;;
23358;SDS011;11851;50.796;4.372;2022-10-13T00:18:34;17.33;;;8.45;;
23358;SDS011;11851;50.796;4.372;2022-10-13T00:21:00;18.40;;;8.18;;
23358;SDS011;11851;50.796;4.372;2022-10-13T00:23:25;19.83;;;8.80;;
23358;SDS011;11851;50.796;4.372;2022-10-13T00:25:51;19.70;;;8.63;;
23358;SDS011;11851;50.796;4.372;2022-10-13T00:28:18;16.90;;;8.38;;
23358;SDS011;11851;50.796;4.372;2022-10-13T00:30:44;22.33;;;8.20;;
23358;SDS011;11851;50.796;4.372;2022-10-13T00:33:11;22.25;;;9.30;;
23358;SDS011;11851;50.796;4.372;2022-10-13T00:35:45;25.25;;;9.20;;
23358;SDS011;11851;50.796;4.372;2022-10-13T00:38:11;25.45;;;9.30;;
23358;SDS011;11851;50.796;4.372;2022-10-13T00:43:24;25.98;;;9.52;;
23358;SDS011;11851;50.796;4.372;2022-10-13T00:46:08;19.48;;;8.65;;
23358;SDS011;11851;50.796;4.372;2022-10-13T00:48:34;21.55;;;9.63;;
23358;SDS011;11851;50.796;4.372;2022-10-13T00:50:59;19.23;;;8.75;;
23358;SDS011;11851;50.796;4.372;2022-10-13T00:53:26;24.55;;;8.90;;
23358;SDS011;11851;50.796;4.372;2022-10-13T00:55:56;23.92;;;9.35;;
23358;SDS011;11851;50.796;4.372;2022-10-13T00:58:22;20.60;;;9.32;;
23358;SDS011;11851;50.796;4.372;2022-10-13T01:00:50;24.05;;;10.18;;
23358;SDS011;11851;50.796;4.372;2022-10-13T01:03:20;23.40;;;8.65;;
23358;SDS011;11851;50.796;4.372;2022-10-13T01:05:46;23.00;;;9.07;;
23358;SDS011;11851;50.796;4.372;2022-10-13T01:08:14;20.73;;;9.13;;
23358;SDS011;11851;50.796;4.372;2022-10-13T01:10:55;20.73;;;8.57;;
23358;SDS011;11851;50.796;4.372;2022-10-13T01:21:54;16.50;;;8.68;;
23358;SDS011;11851;50.796;4.372;2022-10-13T01:24:55;22.00;;;8.32;;
23358;SDS011;11851;50.796;4.372;2022-10-13T01:30:36;18.42;;;8.18;;
23358;SDS011;11851;50.796;4.372;2022-10-13T01:33:14;24.17;;;9.18;;
23358;SDS011;11851;50.796;4.372;2022-10-13T01:35:50;20.48;;;8.88;;
23358;SDS011;11851;50.796;4.372;2022-10-13T01:41:39;20.20;;;8.75;;
23358;SDS011;11851;50.796;4.372;2022-10-13T01:44:10;22.05;;;9.02;;
23358;SDS011;11851;50.796;4.372;2022-10-13T01:46:39;27.10;;;9.35;;
23358;SDS011;11851;50.796;4.372;2022-10-13T01:49:12;21.20;;;7.88;;
23358;SDS011;11851;50.796;4.372;2022-10-13T01:51:41;22.25;;;8.65;;
23358;SDS011;11851;50.796;4.372;2022-10-13T01:54:06;26.60;;;9.05;;
23358;SDS011;11851;50.796;4.372;2022-10-13T01:56:32;23.38;;;9.25;;
23358;SDS011;11851;50.796;4.372;2022-10-13T01:58:58;25.50;;;10.45;;
23358;SDS011;11851;50.796;4.372;2022-10-13T02:04:19;16.52;;;9.40;;
23358;SDS011;11851;50.796;4.372;2022-10-13T02:07:28;20.13;;;10.10;;
23358;SDS011;11851;50.796;4.372;2022-10-13T02:10:20;19.17;;;9.30;;
23358;SDS011;11851;50.796;4.372;2022-10-13T02:13:03;23.60;;;10.20;;
23358;SDS011;11851;50.796;4.372;2022-10-13T02:15:37;27.48;;;9.75;;
23358;SDS011;11851;50.796;4.372;2022-10-13T02:18:07;25.25;;;10.60;;
23358;SDS011;11851;50.796;4.372;2022-10-13T02:20:36;28.98;;;11.18;;
23358;SDS011;11851;50.796;4.372;2022-10-13T02:23:06;26.55;;;11.23;;
23358;SDS011;11851;50.796;4.372;2022-10-13T02:25:35;30.02;;;11.18;;
23358;SDS011;11851;50.796;4.372;2022-10-13T02:28:02;24.48;;;11.55;;
23358;SDS011;11851;50.796;4.372;2022-10-13T02:30:29;26.38;;;11.88;;
23358;SDS011;11851;50.796;4.372;2022-10-13T02:32:57;28.50;;;12.20;;
23358;SDS011;11851;50.796;4.372;2022-10-13T02:35:26;32.25;;;10.60;;
23358;SDS011;11851;50.796;4.372;2022-10-13T02:37:53;26.30;;;11.07;;
23358;SDS011;11851;50.796;4.372;2022-10-13T02:40:19;27.17;;;11.30;;
23358;SDS011;11851;50.796;4.372;2022-10-13T02:42:45;25.85;;;11.15;;
23358;SDS011;11851;50.796;4.372;2022-10-13T02:45:10;26.70;;;11.52;;
23358;SDS011;11851;50.796;4.372;2022-10-13T02:47:36;27.65;;;12.57;;
23358;SDS011;11851;50.796;4.372;2022-10-13T02:50:02;31.17;;;12.10;;
23358;SDS011;11851;50.796;4.372;2022-10-13T02:52:28;18.30;;;10.55;;
23358;SDS011;11851;50.796;4.372;2022-10-13T02:54:54;28.63;;;11.80;;
23358;SDS011;11851;50.796;4.372;2022-10-13T02:57:20;22.98;;;11.68;;
23358;SDS011;11851;50.796;4.372;2022-10-13T02:59:46;27.13;;;11.75;;
23358;SDS011;11851;50.796;4.372;2022-10-13T03:02:11;23.25;;;11.05;;
23358;SDS011;11851;50.796;4.372;2022-10-13T03:04:37;24.05;;;12.00;;
23358;SDS011;11851;50.796;4.372;2022-10-13T03:07:02;26.98;;;12.73;;
23358;SDS011;11851;50.796;4.372;2022-10-13T03:09:28;29.98;;;12.48;;
23358;SDS011;11851;50.796;4.372;2022-10-13T03:11:54;29.13;;;12.02;;
23358;SDS011;11851;50.796;4.372;2022-10-13T03:14:19;27.20;;;12.20;;
23358;SDS011;11851;50.796;4.372;2022-10-13T03:16:45;30.17;;;12.45;;
23358;SDS011;11851;50.796;4.372;2022-10-13T03:19:11;40.80;;;13.45;;
23358;SDS011;11851;50.796;4.372;2022-10-13T03:21:37;29.02;;;12.85;;
23358;SDS011;11851;50.796;4.372;2022-10-13T03:24:03;23.25;;;11.63;;
23358;SDS011;11851;50.796;4.372;2022-10-13T03:26:29;27.45;;;12.48;;
23358;SDS011;11851;50.796;4.372;2022-10-13T03:28:55;36.15;;;13.10;;
23358;SDS011;11851;50.796;4.372;2022-10-13T03:31:21;27.58;;;12.63;;
23358;SDS011;11851;50.796;4.372;2022-10-13T03:33:47;28.95;;;12.27;;
23358;SDS011;11851;50.796;4.372;2022-10-13T03:36:15;25.90;;;11.85;;
23358;SDS011;11851;50.796;4.372;2022-10-13T03:38:41;22.38;;;11.57;;
23358;SDS011;11851;50.796;4.372;2022-10-13T03:41:11;27.90;;;12.10;;
23358;SDS011;11851;50.796;4.372;2022-10-13T03:43:41;32.92;;;12.13;;
23358;SDS011;11851;50.796;4.372;2022-10-13T03:46:07;27.10;;;12.45;;
23358;SDS011;11851;50.796;4.372;2022-10-13T03:48:35;28.25;;;12.35;;
23358;SDS011;11851;50.796;4.372;2022-10-13T03:51:08;26.20;;;12.63;;
23358;SDS011;11851;50.796;4.372;2022-10-13T03:53:37;28.75;;;13.13;;
23358;SDS011;11851;50.796;4.372;2022-10-13T03:56:02;28.67;;;12.80;;
23358;SDS011;11851;50.796;4.372;2022-10-13T03:58:29;25.83;;;11.40;;
23358;SDS011;11851;50.796;4.372;2022-10-13T04:00:55;21.33;;;12.00;;
23358;SDS011;11851;50.796;4.372;2022-10-13T04:03:25;30.02;;;12.27;;
23358;SDS011;11851;50.796;4.372;2022-10-13T04:05:51;35.30;;;12.65;;
23358;SDS011;11851;50.796;4.372;2022-10-13T04:08:17;27.70;;;11.68;;
23358;SDS011;11851;50.796;4.372;2022-10-13T04:10:42;22.45;;;11.23;;
23358;SDS011;11851;50.796;4.372;2022-10-13T04:13:08;29.75;;;11.75;;
23358;SDS011;11851;50.796;4.372;2022-10-13T04:15:37;25.70;;;11.32;;
23358;SDS011;11851;50.796;4.372;2022-10-13T04:18:04;25.52;;;12.20;;
23358;SDS011;11851;50.796;4.372;2022-10-13T04:20:34;31.23;;;12.45;;
23358;SDS011;11851;50.796;4.372;2022-10-13T04:23:01;29.55;;;12.88;;
23358;SDS011;11851;50.796;4.372;2022-10-13T04:25:27;27.15;;;12.48;;
23358;SDS011;11851;50.796;4.372;2022-10-13T04:27:53;25.27;;;12.10;;
23358;SDS011;11851;50.796;4.372;2022-10-13T04:30:18;29.77;;;12.52;;
23358;SDS011;11851;50.796;4.372;2022-10-13T04:32:44;33.88;;;12.27;;
23358;SDS011;11851;50.796;4.372;2022-10-13T04:35:10;31.98;;;12.52;;
23358;SDS011;11851;50.796;4.372;2022-10-13T04:37:35;28.02;;;12.02;;
23358;SDS011;11851;50.796;4.372;2022-10-13T04:40:01;25.63;;;12.40;;
23358;SDS011;11851;50.796;4.372;2022-10-13T04:42:27;32.60;;;13.07;;
23358;SDS011;11851;50.796;4.372;2022-10-13T04:44:52;33.33;;;13.73;;
23358;SDS011;11851;50.796;4.372;2022-10-13T04:47:18;36.92;;;12.65;;
23358;SDS011;11851;50.796;4.372;2022-10-13T04:49:43;31.20;;;12.70;;
23358;SDS011;11851;50.796;4.372;2022-10-13T04:52:09;30.90;;;12.95;;
23358;SDS011;11851;50.796;4.372;2022-10-13T04:54:35;26.25;;;12.40;;
23358;SDS011;11851;50.796;4.372;2022-10-13T04:57:00;29.85;;;13.02;;
23358;SDS011;11851;50.796;4.372;2022-10-13T04:59:26;26.65;;;12.35;;
23358;SDS011;11851;50.796;4.372;2022-10-13T05:01:52;26.23;;;11.60;;
23358;SDS011;11851;50.796;4.372;2022-10-13T05:04:17;29.17;;;13.00;;
23358;SDS011;11851;50.796;4.372;2022-10-13T05:06:43;29.20;;;11.77;;
23358;SDS011;11851;50.796;4.372;2022-10-13T05:09:13;30.98;;;12.38;;
23358;SDS011;11851;50.796;4.372;2022-10-13T05:11:46;31.13;;;12.73;;
23358;SDS011;11851;50.796;4.372;2022-10-13T05:14:12;29.88;;;12.60;;
23358;SDS011;11851;50.796;4.372;2022-10-13T05:16:37;25.67;;;11.65;;
23358;SDS011;11851;50.796;4.372;2022-10-13T05:19:03;31.83;;;12.90;;
23358;SDS011;11851;50.796;4.372;2022-10-13T05:21:29;26.35;;;12.88;;
23358;SDS011;11851;50.796;4.372;2022-10-13T05:23:55;26.58;;;12.25;;
23358;SDS011;11851;50.796;4.372;2022-10-13T05:26:30;34.15;;;12.63;;
23358;SDS011;11851;50.796;4.372;2022-10-13T05:29:00;25.08;;;12.18;;
23358;SDS011;11851;50.796;4.372;2022-10-13T05:31:27;26.77;;;11.13;;
23358;SDS011;11851;50.796;4.372;2022-10-13T05:33:54;30.02;;;11.38;;
23358;SDS011;11851;50.796;4.372;2022-10-13T05:36:21;27.60;;;11.63;;
23358;SDS011;11851;50.796;4.372;2022-10-13T05:38:52;31.33;;;12.57;;
23358;SDS011;11851;50.796;4.372;2022-10-13T05:41:20;31.02;;;13.02;;
23358;SDS011;11851;50.796;4.372;2022-10-13T05:43:54;25.92;;;11.77;;
23358;SDS011;11851;50.796;4.372;2022-10-13T05:46:25;36.60;;;12.85;;
23358;SDS011;11851;50.796;4.372;2022-10-13T05:48:51;23.35;;;10.90;;
23358;SDS011;11851;50.796;4.372;2022-10-13T05:51:21;24.85;;;12.02;;
23358;SDS011;11851;50.796;4.372;2022-10-13T05:53:51;25.25;;;11.23;;
23358;SDS011;11851;50.796;4.372;2022-10-13T05:56:24;26.95;;;11.38;;
23358;SDS011;11851;50.796;4.372;2022-10-13T05:58:53;22.55;;;11.73;;
23358;SDS011;11851;50.796;4.372;2022-10-13T06:01:23;29.38;;;12.18;;
23358;SDS011;11851;50.796;4.372;2022-10-13T06:03:52;29.25;;;12.05;;
23358;SDS011;11851;50.796;4.372;2022-10-13T06:06:20;29.98;;;11.93;;
23358;SDS011;11851;50.796;4.372;2022-10-13T06:08:48;27.20;;;11.65;;
23358;SDS011;11851;50.796;4.372;2022-10-13T06:11:15;22.83;;;10.70;;
23358;SDS011;11851;50.796;4.372;2022-10-13T06:13:41;26.85;;;11.48;;
23358;SDS011;11851;50.796;4.372;2022-10-13T06:16:07;23.75;;;11.27;;
23358;SDS011;11851;50.796;4.372;2022-10-13T06:18:33;24.55;;;11.02;;
23358;SDS011;11851;50.796;4.372;2022-10-13T06:20:58;30.20;;;11.40;;
23358;SDS011;11851;50.796;4.372;2022-10-13T06:23:24;25.92;;;11.27;;
23358;SDS011;11851;50.796;4.372;2022-10-13T06:25:50;22.23;;;11.40;;
23358;SDS011;11851;50.796;4.372;2022-10-13T06:28:17;26.90;;;10.60;;
23358;SDS011;11851;50.796;4.372;2022-10-13T06:30:44;24.52;;;10.90;;
23358;SDS011;11851;50.796;4.372;2022-10-13T06:33:17;26.58;;;11.23;;
23358;SDS011;11851;50.796;4.372;2022-10-13T06:35:43;21.40;;;11.13;;
23358;SDS011;11851;50.796;4.372;2022-10-13T06:38:09;22.25;;;10.75;;
23358;SDS011;11851;50.796;4.372;2022-10-13T06:40:34;23.35;;;10.55;;
23358;SDS011;11851;50.796;4.372;2022-10-13T06:43:00;25.40;;;10.73;;
23358;SDS011;11851;50.796;4.372;2022-10-13T06:45:26;26.75;;;10.48;;
23358;SDS011;11851;50.796;4.372;2022-10-13T06:47:52;22.27;;;9.82;;
23358;SDS011;11851;50.796;4.372;2022-10-13T06:50:19;24.02;;;10.93;;
23358;SDS011;11851;50.796;4.372;2022-10-13T06:52:45;21.48;;;9.68;;
23358;SDS011;11851;50.796;4.372;2022-10-13T06:55:10;30.23;;;11.10;;
23358;SDS011;11851;50.796;4.372;2022-10-13T06:57:36;25.58;;;11.20;;
23358;SDS011;11851;50.796;4.372;2022-10-13T07:00:02;32.22;;;10.98;;
23358;SDS011;11851;50.796;4.372;2022-10-13T07:02:29;39.50;;;11.40;;
23358;SDS011;11851;50.796;4.372;2022-10-13T07:04:54;27.73;;;10.55;;
23358;SDS011;11851;50.796;4.372;2022-10-13T07:07:20;24.98;;;10.70;;
23358;SDS011;11851;50.796;4.372;2022-10-13T07:09:46;23.67;;;9.95;;
23358;SDS011;11851;50.796;4.372;2022-10-13T07:12:12;24.83;;;10.98;;
23358;SDS011;11851;50.796;4.372;2022-10-13T07:14:38;23.50;;;11.23;;
23358;SDS011;11851;50.796;4.372;2022-10-13T07:17:03;20.65;;;10.23;;
23358;SDS011;11851;50.796;4.372;2022-10-13T07:19:29;25.63;;;11.50;;
23358;SDS011;11851;50.796;4.372;2022-10-13T07:21:55;23.45;;;10.25;;
23358;SDS011;11851;50.796;4.372;2022-10-13T07:24:21;24.58;;;10.05;;
23358;SDS011;11851;50.796;4.372;2022-10-13T07:26:47;24.55;;;11.02;;
23358;SDS011;11851;50.796;4.372;2022-10-13T07:29:12;24.05;;;10.27;;
23358;SDS011;11851;50.796;4.372;2022-10-13T07:31:38;21.88;;;10.07;;
23358;SDS011;11851;50.796;4.372;2022-10-13T07:34:04;26.10;;;10.75;;
23358;SDS011;11851;50.796;4.372;2022-10-13T07:36:31;24.45;;;11.13;;
23358;SDS011;11851;50.796;4.372;2022-10-13T07:38:57;29.55;;;12.25;;
23358;SDS011;11851;50.796;4.372;2022-10-13T07:41:22;25.23;;;12.30;;
23358;SDS011;11851;50.796;4.372;2022-10-13T07:43:52;24.10;;;11.90;;
23358;SDS011;11851;50.796;4.372;2022-10-13T07:46:19;26.23;;;12.13;;
23358;SDS011;11851;50.796;4.372;2022-10-13T07:48:45;25.88;;;11.48;;
23358;SDS011;11851;50.796;4.372;2022-10-13T07:51:11;27.77;;;11.25;;
23358;SDS011;11851;50.796;4.372;2022-10-13T07:53:37;23.73;;;10.68;;
23358;SDS011;11851;50.796;4.372;2022-10-13T07:56:05;24.05;;;11.05;;
23358;SDS011;11851;50.796;4.372;2022-10-13T07:58:35;26.35;;;11.80;;
23358;SDS011;11851;50.796;4.372;2022-10-13T08:01:01;22.33;;;10.88;;
23358;SDS011;11851;50.796;4.372;2022-10-13T08:03:27;25.25;;;11.60;;
23358;SDS011;11851;50.796;4.372;2022-10-13T08:05:54;30.75;;;11.27;;
23358;SDS011;11851;50.796;4.372;2022-10-13T08:08:22;21.77;;;9.55;;
23358;SDS011;11851;50.796;4.372;2022-10-13T08:10:47;26.08;;;10.15;;
23358;SDS011;11851;50.796;4.372;2022-10-13T08:13:13;27.02;;;10.07;;
23358;SDS011;11851;50.796;4.372;2022-10-13T08:15:39;20.58;;;10.20;;
23358;SDS011;11851;50.796;4.372;2022-10-13T08:18:06;25.58;;;9.95;;
23358;SDS011;11851;50.796;4.372;2022-10-13T08:20:32;27.90;;;10.38;;
23358;SDS011;11851;50.796;4.372;2022-10-13T08:22:59;24.92;;;9.57;;
23358;SDS011;11851;50.796;4.372;2022-10-13T08:25:25;23.58;;;9.40;;
23358;SDS011;11851;50.796;4.372;2022-10-13T08:27:51;20.70;;;10.52;;
23358;SDS011;11851;50.796;4.372;2022-10-13T08:30:16;29.33;;;9.70;;
23358;SDS011;11851;50.796;4.372;2022-10-13T08:32:42;16.55;;;8.85;;
23358;SDS011;11851;50.796;4.372;2022-10-13T08:35:09;24.20;;;9.00;;
23358;SDS011;11851;50.796;4.372;2022-10-13T08:37:35;16.65;;;8.75;;
23358;SDS011;11851;50.796;4.372;2022-10-13T08:40:00;24.75;;;9.68;;
23358;SDS011;11851;50.796;4.372;2022-10-13T08:42:26;15.98;;;8.13;;
23358;SDS011;11851;50.796;4.372;2022-10-13T08:47:29;25.65;;;10.30;;
23358;SDS011;11851;50.796;4.372;2022-10-13T08:50:13;15.68;;;8.07;;
23358;SDS011;11851;50.796;4.372;2022-10-13T08:52:46;24.90;;;8.77;;
23358;SDS011;11851;50.796;4.372;2022-10-13T08:55:17;16.92;;;8.60;;
23358;SDS011;11851;50.796;4.372;2022-10-13T08:57:48;18.75;;;8.50;;
23358;SDS011;11851;50.796;4.372;2022-10-13T09:00:14;18.35;;;8.32;;
23358;SDS011;11851;50.796;4.372;2022-10-13T09:02:40;20.55;;;8.25;;
23358;SDS011;11851;50.796;4.372;2022-10-13T09:05:11;22.52;;;8.65;;
23358;SDS011;11851;50.796;4.372;2022-10-13T09:07:42;18.50;;;7.75;;
23358;SDS011;11851;50.796;4.372;2022-10-13T09:10:10;18.88;;;7.60;;
23358;SDS011;11851;50.796;4.372;2022-10-13T09:12:36;21.52;;;8.88;;
23358;SDS011;11851;50.796;4.372;2022-10-13T09:17:33;23.67;;;8.52;;
23358;SDS011;11851;50.796;4.372;2022-10-13T09:20:09;19.08;;;8.55;;
23358;SDS011;11851;50.796;4.372;2022-10-13T09:22:58;18.33;;;8.27;;
23358;SDS011;11851;50.796;4.372;2022-10-13T09:25:46;18.35;;;7.82;;
23358;SDS011;11851;50.796;4.372;2022-10-13T09:28:21;23.55;;;7.88;;
23358;SDS011;11851;50.796;4.372;2022-10-13T09:33:37;23.05;;;8.55;;
23358;SDS011;11851;50.796;4.372;2022-10-13T09:38:31;19.42;;;8.23;;
23358;SDS011;11851;50.796;4.372;2022-10-13T09:41:18;18.25;;;7.78;;
23358;SDS011;11851;50.796;4.372;2022-10-13T09:46:20;26.30;;;9.07;;
23358;SDS011;11851;50.796;4.372;2022-10-13T09:48:51;17.90;;;7.97;;
23358;SDS011;11851;50.796;4.372;2022-10-13T09:53:58;20.08;;;8.48;;
23358;SDS011;11851;50.796;4.372;2022-10-13T09:59:15;25.73;;;9.65;;
23358;SDS011;11851;50.796;4.372;2022-10-13T10:01:48;25.30;;;9.80;;
23358;SDS011;11851;50.796;4.372;2022-10-13T10:04:20;21.30;;;8.65;;
23358;SDS011;11851;50.796;4.372;2022-10-13T10:06:49;19.60;;;8.67;;
23358;SDS011;11851;50.796;4.372;2022-10-13T10:11:46;21.17;;;8.65;;
23358;SDS011;11851;50.796;4.372;2022-10-13T10:14:20;15.85;;;7.78;;
23358;SDS011;11851;50.796;4.372;2022-10-13T10:17:06;24.55;;;10.35;;
23358;SDS011;11851;50.796;4.372;2022-10-13T10:22:36;26.50;;;9.98;;
23358;SDS011;11851;50.796;4.372;2022-10-13T10:30:40;19.15;;;9.25;;
23358;SDS011;11851;50.796;4.372;2022-10-13T10:33:12;22.00;;;10.15;;
23358;SDS011;11851;50.796;4.372;2022-10-13T10:41:04;24.10;;;11.55;;
23358;SDS011;11851;50.796;4.372;2022-10-13T10:43:38;22.95;;;11.10;;
23358;SDS011;11851;50.796;4.372;2022-10-13T10:46:10;29.98;;;11.70;;
23358;SDS011;11851;50.796;4.372;2022-10-13T10:48:46;34.17;;;15.80;;
23358;SDS011;11851;50.796;4.372;2022-10-13T10:51:14;31.17;;;17.58;;
23358;SDS011;11851;50.796;4.372;2022-10-13T10:56:38;36.70;;;18.35;;
23358;SDS011;11851;50.796;4.372;2022-10-13T11:04:37;43.47;;;17.83;;
23358;SDS011;11851;50.796;4.372;2022-10-13T11:17:40;33.85;;;15.07;;
23358;SDS011;11851;50.796;4.372;2022-10-13T11:27:59;29.80;;;13.27;;
23358;SDS011;11851;50.796;4.372;2022-10-13T11:30:49;26.50;;;14.63;;
23358;SDS011;11851;50.796;4.372;2022-10-13T11:33:34;26.63;;;13.13;;
23358;SDS011;11851;50.796;4.372;2022-10-13T11:36:36;26.42;;;15.02;;
23358;SDS011;11851;50.796;4.372;2022-10-13T11:44:53;27.35;;;15.68;;
23358;SDS011;11851;50.796;4.372;2022-10-13T11:55:04;34.75;;;15.55;;
23358;SDS011;11851;50.796;4.372;2022-10-13T11:57:36;26.48;;;13.57;;
23358;SDS011;11851;50.796;4.372;2022-10-13T12:00:02;31.23;;;15.73;;
23358;SDS011;11851;50.796;4.372;2022-10-13T12:02:28;29.42;;;15.35;;
23358;SDS011;11851;50.796;4.372;2022-10-13T12:04:58;33.83;;;16.23;;
23358;SDS011;11851;50.796;4.372;2022-10-13T12:07:24;28.63;;;17.15;;
23358;SDS011;11851;50.796;4.372;2022-10-13T12:09:54;28.15;;;15.18;;
23358;SDS011;11851;50.796;4.372;2022-10-13T12:12:22;31.35;;;14.30;;
23358;SDS011;11851;50.796;4.372;2022-10-13T12:14:52;30.73;;;16.27;;
23358;SDS011;11851;50.796;4.372;2022-10-13T12:19:52;34.28;;;14.73;;
23358;SDS011;11851;50.796;4.372;2022-10-13T12:22:26;29.33;;;15.60;;
23358;SDS011;11851;50.796;4.372;2022-10-13T12:25:02;24.90;;;13.93;;
23358;SDS011;11851;50.796;4.372;2022-10-13T12:27:31;28.70;;;15.00;;
23358;SDS011;11851;50.796;4.372;2022-10-13T12:30:22;30.70;;;16.40;;
23358;SDS011;11851;50.796;4.372;2022-10-13T12:32:51;37.65;;;16.38;;
23358;SDS011;11851;50.796;4.372;2022-10-13T12:35:19;34.97;;;15.57;;
23358;SDS011;11851;50.796;4.372;2022-10-13T12:37:48;27.08;;;13.77;;
23358;SDS011;11851;50.796;4.372;2022-10-13T12:40:16;26.00;;;13.13;;
23358;SDS011;11851;50.796;4.372;2022-10-13T12:42:42;24.95;;;12.80;;
23358;SDS011;11851;50.796;4.372;2022-10-13T12:45:13;32.00;;;13.85;;
23358;SDS011;11851;50.796;4.372;2022-10-13T12:47:49;36.30;;;15.50;;
23358;SDS011;11851;50.796;4.372;2022-10-13T12:53:04;38.55;;;17.35;;
23358;SDS011;11851;50.796;4.372;2022-10-13T12:55:44;28.02;;;14.25;;
23358;SDS011;11851;50.796;4.372;2022-10-13T12:58:26;31.00;;;14.65;;
23358;SDS011;11851;50.796;4.372;2022-10-13T13:00:55;27.20;;;14.10;;
23358;SDS011;11851;50.796;4.372;2022-10-13T13:03:32;26.58;;;15.05;;
23358;SDS011;11851;50.796;4.372;2022-10-13T13:08:38;30.40;;;14.10;;
23358;SDS011;11851;50.796;4.372;2022-10-13T13:11:15;32.20;;;15.00;;
23358;SDS011;11851;50.796;4.372;2022-10-13T13:17:00;26.45;;;14.48;;
23358;SDS011;11851;50.796;4.372;2022-10-13T13:19:29;25.95;;;15.60;;
23358;SDS011;11851;50.796;4.372;2022-10-13T13:21:56;27.30;;;15.63;;
23358;SDS011;11851;50.796;4.372;2022-10-13T13:24:22;28.45;;;15.00;;
23358;SDS011;11851;50.796;4.372;2022-10-13T13:26:48;31.35;;;16.17;;
23358;SDS011;11851;50.796;4.372;2022-10-13T13:29:13;31.17;;;16.33;;
23358;SDS011;11851;50.796;4.372;2022-10-13T13:31:39;33.78;;;17.23;;
23358;SDS011;11851;50.796;4.372;2022-10-13T13:34:04;26.48;;;16.88;;
23358;SDS011;11851;50.796;4.372;2022-10-13T13:36:30;34.22;;;18.02;;
23358;SDS011;11851;50.796;4.372;2022-10-13T13:38:56;32.80;;;18.33;;
23358;SDS011;11851;50.796;4.372;2022-10-13T13:41:21;34.47;;;18.08;;
23358;SDS011;11851;50.796;4.372;2022-10-13T13:43:51;28.38;;;17.33;;
23358;SDS011;11851;50.796;4.372;2022-10-13T13:46:21;38.70;;;18.90;;
23358;SDS011;11851;50.796;4.372;2022-10-13T13:48:48;39.13;;;20.60;;
23358;SDS011;11851;50.796;4.372;2022-10-13T13:51:14;38.75;;;20.55;;
23358;SDS011;11851;50.796;4.372;2022-10-13T13:53:40;36.60;;;19.08;;
23358;SDS011;11851;50.796;4.372;2022-10-13T13:56:10;39.90;;;20.65;;
23358;SDS011;11851;50.796;4.372;2022-10-13T13:58:37;40.33;;;19.23;;
23358;SDS011;11851;50.796;4.372;2022-10-13T14:01:03;41.60;;;20.30;;
23358;SDS011;11851;50.796;4.372;2022-10-13T14:03:29;36.92;;;18.40;;
23358;SDS011;11851;50.796;4.372;2022-10-13T14:05:54;39.08;;;18.73;;
23358;SDS011;11851;50.796;4.372;2022-10-13T14:08:20;44.30;;;25.45;;
23358;SDS011;11851;50.796;4.372;2022-10-13T14:10:46;51.97;;;29.52;;
23358;SDS011;11851;50.796;4.372;2022-10-13T14:13:11;43.78;;;23.30;;
23358;SDS011;11851;50.796;4.372;2022-10-13T14:15:37;39.28;;;20.10;;
23358;SDS011;11851;50.796;4.372;2022-10-13T14:18:02;35.75;;;20.23;;
23358;SDS011;11851;50.796;4.372;2022-10-13T14:20:28;32.78;;;17.13;;
23358;SDS011;11851;50.796;4.372;2022-10-13T14:22:54;34.05;;;17.77;;
23358;SDS011;11851;50.796;4.372;2022-10-13T14:25:19;30.73;;;16.63;;
23358;SDS011;11851;50.796;4.372;2022-10-13T14:27:45;29.30;;;16.38;;
23358;SDS011;11851;50.796;4.372;2022-10-13T14:30:11;25.42;;;14.35;;
23358;SDS011;11851;50.796;4.372;2022-10-13T14:32:37;33.00;;;15.18;;
23358;SDS011;11851;50.796;4.372;2022-10-13T14:35:03;25.80;;;13.85;;
23358;SDS011;11851;50.796;4.372;2022-10-13T14:37:30;24.80;;;14.25;;
23358;SDS011;11851;50.796;4.372;2022-10-13T14:39:55;21.50;;;12.73;;
23358;SDS011;11851;50.796;4.372;2022-10-13T14:42:21;22.55;;;12.95;;
23358;SDS011;11851;50.796;4.372;2022-10-13T14:44:47;22.83;;;13.32;;
23358;SDS011;11851;50.796;4.372;2022-10-13T14:47:12;23.45;;;11.95;;
23358;SDS011;11851;50.796;4.372;2022-10-13T14:49:38;22.00;;;11.57;;
23358;SDS011;11851;50.796;4.372;2022-10-13T14:52:04;26.92;;;12.45;;
23358;SDS011;11851;50.796;4.372;2022-10-13T14:54:29;18.75;;;10.18;;
23358;SDS011;11851;50.796;4.372;2022-10-13T14:56:55;40.45;;;18.45;;
23358;SDS011;11851;50.796;4.372;2022-10-13T14:59:23;21.58;;;12.25;;
23358;SDS011;11851;50.796;4.372;2022-10-13T15:01:52;23.25;;;11.75;;
23358;SDS011;11851;50.796;4.372;2022-10-13T15:04:17;31.20;;;12.95;;
23358;SDS011;11851;50.796;4.372;2022-10-13T15:06:43;17.20;;;7.97;;
23358;SDS011;11851;50.796;4.372;2022-10-13T15:09:09;19.15;;;10.15;;
23358;SDS011;11851;50.796;4.372;2022-10-13T15:11:36;21.02;;;10.43;;
23358;SDS011;11851;50.796;4.372;2022-10-13T15:14:01;19.95;;;8.75;;
23358;SDS011;11851;50.796;4.372;2022-10-13T15:16:28;17.77;;;8.70;;
23358;SDS011;11851;50.796;4.372;2022-10-13T15:18:56;14.07;;;8.45;;
23358;SDS011;11851;50.796;4.372;2022-10-13T15:21:22;15.52;;;8.52;;
23358;SDS011;11851;50.796;4.372;2022-10-13T15:23:48;16.13;;;8.02;;
23358;SDS011;11851;50.796;4.372;2022-10-13T15:26:14;20.70;;;8.10;;
23358;SDS011;11851;50.796;4.372;2022-10-13T15:28:42;19.88;;;10.15;;
23358;SDS011;11851;50.796;4.372;2022-10-13T15:31:10;12.90;;;8.65;;
23358;SDS011;11851;50.796;4.372;2022-10-13T15:33:36;16.27;;;8.20;;
23358;SDS011;11851;50.796;4.372;2022-10-13T15:36:03;16.77;;;8.57;;
23358;SDS011;11851;50.796;4.372;2022-10-13T15:38:28;15.02;;;8.57;;
23358;SDS011;11851;50.796;4.372;2022-10-13T15:41:01;18.73;;;8.93;;
23358;SDS011;11851;50.796;4.372;2022-10-13T15:43:28;15.45;;;8.40;;
23358;SDS011;11851;50.796;4.372;2022-10-13T15:45:55;17.58;;;9.20;;
23358;SDS011;11851;50.796;4.372;2022-10-13T15:48:24;17.50;;;8.23;;
23358;SDS011;11851;50.796;4.372;2022-10-13T15:50:50;18.15;;;8.88;;
23358;SDS011;11851;50.796;4.372;2022-10-13T15:53:16;15.65;;;8.90;;
23358;SDS011;11851;50.796;4.372;2022-10-13T15:55:42;15.23;;;8.65;;
23358;SDS011;11851;50.796;4.372;2022-10-13T15:58:08;19.65;;;9.32;;
23358;SDS011;11851;50.796;4.372;2022-10-13T16:00:33;15.13;;;7.78;;
23358;SDS011;11851;50.796;4.372;2022-10-13T16:02:59;17.63;;;8.15;;
23358;SDS011;11851;50.796;4.372;2022-10-13T16:05:25;20.20;;;11.73;;
23358;SDS011;11851;50.796;4.372;2022-10-13T16:07:50;30.98;;;19.60;;
23358;SDS011;11851;50.796;4.372;2022-10-13T16:10:16;28.15;;;14.95;;
23358;SDS011;11851;50.796;4.372;2022-10-13T16:12:42;18.88;;;12.15;;
23358;SDS011;11851;50.796;4.372;2022-10-13T16:15:08;19.23;;;9.77;;
23358;SDS011;11851;50.796;4.372;2022-10-13T16:17:35;17.55;;;9.93;;
23358;SDS011;11851;50.796;4.372;2022-10-13T16:20:17;12.95;;;9.35;;